Terminal Aerodrome Forecast
Issued by NWS Riverton, WY

Current Version | Previous Version | Text Only | Print | Product List | Glossary On
Versions: 1 2 3 4 5 6 7 8 9 10 11 12 13 14 15 16 17
000
FTUS45 KRIW 242300
TAFRIW
TAF
KRIW 242333Z 2500/2524 35006KT P6SM FEW070 BKN110
     FM251000 VRB05KT P6SM SCT070 BKN130
     FM251700 VRB05KT P6SM SCT200=

USA.gov is the U.S. government's official web portal to all federal, state and local government web resources and services.